Bookmark and Share
Track history (hours):
 

Neptune Avra

Last reported at 2014-Apr-21 02:17 UTC. Time now 2014-Apr-21 03:13 UTC.
Position N 43°24' E 003°43'.

Length 155 m; draft 6.3 m.

Type: Cargo ship. MMSI: 248598000.

NotesDate/timePositionNaut miles runAvg speedWind from/ knotsBaromVisibWave heightAir tempDewpointWater temp
2014-Apr-21 02:17N 43°24' E 003°43'0 0.0
2014-Apr-21 00:11N 43°24' E 003°43'0 0.0
2014-Apr-20 23:26N 43°24' E 003°43'0 0.0
2014-Apr-20 21:17N 43°24' E 003°43'0 0.0
2014-Apr-20 20:23N 43°24' E 003°43'0 0.0
2014-Apr-20 19:23N 43°24' E 003°43'0 0.0
2014-Apr-20 17:32N 43°24' E 003°43'0 0.0
2014-Apr-20 16:33N 43°24' E 003°43'2 2.0
2014-Apr-20 15:23N 43°22' E 003°44'0 0.0
2014-Apr-20 14:31N 43°22' E 003°44'0 0.0
2014-Apr-20 13:28N 43°22' E 003°44'0 0.0
2014-Apr-20 12:17N 43°22' E 003°44'0 0.1
2014-Apr-20 11:33N 43°22' E 003°44'0 0.0
2014-Apr-20 10:33N 43°22' E 003°44'0 0.0
2014-Apr-20 09:30N 43°22' E 003°44'0 0.0
2014-Apr-20 08:25N 43°22' E 003°44'0 0.0
2014-Apr-20 07:11N 43°22' E 003°44'0 0.0
2014-Apr-20 06:25N 43°22' E 003°44'0 0.0
2014-Apr-20 05:30N 43°22' E 003°44'0 0.0
2014-Apr-20 04:27N 43°22' E 003°44'0 0.0
2014-Apr-20 03:31N 43°22' E 003°44'0 0.0
2014-Apr-20 02:21N 43°22' E 003°44'0 0.0
2014-Apr-20 01:21N 43°22' E 003°44'0 0.0
2014-Apr-20 00:09N 43°22' E 003°44'0 0.2
2014-Apr-19 23:33N 43°22' E 003°44'1211.8
2014-Apr-19 22:33N 43°10' E 003°43'1615.5
2014-Apr-19 21:33N 42°55' E 003°40'1515.1
2014-Apr-19 20:33N 42°40' E 003°35'1514.8
2014-Apr-19 19:33N 42°26' E 003°31'1514.8
2014-Apr-19 18:33N 42°11' E 003°26'1515.0
2014-Apr-19 17:34N 41°57' E 003°21'1414.2
2014-Apr-19 16:33N 41°46' E 003°09'1414.0
2014-Apr-19 15:33N 41°37' E 002°54'1414.1
2014-Apr-19 14:33N 41°29' E 002°39'1414.2
2014-Apr-19 13:33N 41°22' E 002°22'10 0.9
2014-Apr-19 03:22N 41°20' E 002°10'7 8.5
2014-Apr-19 02:30N 41°12' E 002°10'0 0.3
2014-Apr-19 01:33N 41°12' E 002°10'0 0.2
2014-Apr-19 00:18N 41°12' E 002°11'0 0.1
2014-Apr-18 23:21N 41°12' E 002°11'0 0.1
2014-Apr-18 22:33N 41°12' E 002°11'9 9.0
2014-Apr-18 21:33N 41°04' E 002°05'  
2014-Apr-13 06:32N 38°27' E 000°53'2116.9
2014-Apr-13 05:19N 38°47' E 001°00'2116.8
2014-Apr-13 04:03N 39°07' E 001°09'1016.9
2014-Apr-13 03:27N 39°15' E 001°16'1917.2
2014-Apr-13 02:22N 39°31' E 001°28'1518.1
2014-Apr-13 01:34N 39°44' E 001°38'1616.3
2014-Apr-13 00:33N 39°58' E 001°49'1716.7
2014-Apr-12 23:33N 40°12' E 002°01'1716.8
2014-Apr-12 22:33N 40°27' E 002°12'1716.9
2014-Apr-12 21:33N 40°41' E 002°23'1717.0
2014-Apr-12 20:33N 40°56' E 002°34'1818.0
2014-Apr-12 19:33N 41°12' E 002°47'2517.2
2014-Apr-12 18:05N 41°33' E 003°03'1018.3
2014-Apr-12 17:33N 41°42' E 003°10'1716.9
2014-Apr-12 16:33N 41°57' E 003°20'1917.1
2014-Apr-12 15:26N 42°16' E 003°26'1516.9
2014-Apr-12 14:32N 42°31' E 003°29'1616.5
2014-Apr-12 13:32N 42°47' E 003°33'1818.0
2014-Apr-12 12:32N 43°04' E 003°38'1616.5
2014-Apr-12 11:32N 43°21' E 003°43'4 2.7
2014-Apr-12 10:14N 43°24' E 003°43'0 0.0
2014-Apr-12 07:33N 43°24' E 003°43'0 0.0
2014-Apr-12 06:20N 43°24' E 003°43'16 3.2
2014-Apr-12 01:31N 43°08' E 003°44'0 0.4
2014-Apr-12 00:33N 43°08' E 003°45'19 6.3
2014-Apr-11 21:32N 42°50' E 003°38'1514.6
2014-Apr-11 20:32N 42°36' E 003°33'1515.1
2014-Apr-11 19:32N 42°21' E 003°28'3014.6
2014-Apr-11 17:30N 41°52' E 003°18'1414.4
2014-Apr-11 16:32N 41°43' E 003°05'1514.3
2014-Apr-11 15:30N 41°33' E 002°50'1313.3
2014-Apr-11 14:33N 41°26' E 002°35'1414.5
2014-Apr-11 13:33N 41°19' E 002°19'7 7.2
2014-Apr-11 12:32N 41°20' E 002°09'0 0.1
2014-Apr-11 11:28N 41°20' E 002°09'0 0.0
2014-Apr-11 05:21N 41°20' E 002°09'0 0.2
2014-Apr-11 04:33N 41°20' E 002°09'7 5.9
2014-Apr-11 03:22N 41°13' E 002°10'6 6.9
2014-Apr-11 02:32N 41°08' E 002°08'  

Dump ship's entire track history

sailing weather and tide predictions

Neptune Avra — 9HKH6 — position and weather